sensor_id;sensor_type;location;lat;lon;timestamp;pressure;altitude;pressure_sealevel;temperature;humidity
9307;BME280;4691;47.612;7.610;2022-09-24T00:00:47;98875.16;;;14.38;100.00
9307;BME280;4691;47.612;7.610;2022-09-24T00:03:17;98878.53;;;14.41;100.00
9307;BME280;4691;47.612;7.610;2022-09-24T00:05:44;98888.72;;;14.37;100.00
9307;BME280;4691;47.612;7.610;2022-09-24T00:08:10;98897.94;;;14.34;100.00
9307;BME280;4691;47.612;7.610;2022-09-24T00:10:41;98895.81;;;14.28;100.00
9307;BME280;4691;47.612;7.610;2022-09-24T00:13:09;98897.66;;;14.18;100.00
9307;BME280;4691;47.612;7.610;2022-09-24T00:15:42;98896.94;;;14.16;100.00
9307;BME280;4691;47.612;7.610;2022-09-24T00:18:08;98886.91;;;14.18;100.00
9307;BME280;4691;47.612;7.610;2022-09-24T00:20:37;98889.44;;;14.20;100.00
9307;BME280;4691;47.612;7.610;2022-09-24T00:23:02;98882.38;;;14.19;100.00
9307;BME280;4691;47.612;7.610;2022-09-24T00:25:27;98891.56;;;14.26;100.00
9307;BME280;4691;47.612;7.610;2022-09-24T00:28:12;98900.31;;;14.28;100.00
9307;BME280;4691;47.612;7.610;2022-09-24T00:30:42;98897.81;;;14.26;100.00
9307;BME280;4691;47.612;7.610;2022-09-24T00:33:09;98897.81;;;14.26;100.00
9307;BME280;4691;47.612;7.610;2022-09-24T00:35:36;98890.69;;;14.25;100.00
9307;BME280;4691;47.612;7.610;2022-09-24T00:38:02;98891.00;;;14.22;100.00
9307;BME280;4691;47.612;7.610;2022-09-24T00:40:32;98888.31;;;14.22;100.00
9307;BME280;4691;47.612;7.610;2022-09-24T00:42:59;98883.63;;;14.24;100.00
9307;BME280;4691;47.612;7.610;2022-09-24T00:45:26;98878.13;;;14.26;100.00
9307;BME280;4691;47.612;7.610;2022-09-24T00:47:53;98870.91;;;14.26;100.00
9307;BME280;4691;47.612;7.610;2022-09-24T00:50:28;98867.91;;;14.29;100.00
9307;BME280;4691;47.612;7.610;2022-09-24T00:53:11;98867.78;;;14.31;100.00
9307;BME280;4691;47.612;7.610;2022-09-24T00:55:39;98880.09;;;14.33;100.00
9307;BME280;4691;47.612;7.610;2022-09-24T00:58:07;98890.00;;;14.33;100.00
9307;BME280;4691;47.612;7.610;2022-09-24T01:00:36;98874.72;;;14.33;100.00
9307;BME280;4691;47.612;7.610;2022-09-24T01:03:08;98870.47;;;14.31;100.00
9307;BME280;4691;47.612;7.610;2022-09-24T01:05:35;98864.94;;;14.32;100.00
9307;BME280;4691;47.612;7.610;2022-09-24T01:08:01;98861.28;;;14.33;100.00
9307;BME280;4691;47.612;7.610;2022-09-24T01:10:41;98863.97;;;14.33;100.00
9307;BME280;4691;47.612;7.610;2022-09-24T01:22:49;98840.31;;;14.27;100.00
9307;BME280;4691;47.612;7.610;2022-09-24T01:31:04;98860.97;;;14.17;100.00
9307;BME280;4691;47.612;7.610;2022-09-24T01:33:32;98873.16;;;14.11;100.00
9307;BME280;4691;47.612;7.610;2022-09-24T01:36:03;98875.72;;;14.13;100.00
9307;BME280;4691;47.612;7.610;2022-09-24T01:38:36;98883.50;;;14.16;100.00
9307;BME280;4691;47.612;7.610;2022-09-24T01:41:03;98878.84;;;14.18;100.00
9307;BME280;4691;47.612;7.610;2022-09-24T01:43:31;98880.22;;;14.22;100.00
9307;BME280;4691;47.612;7.610;2022-09-24T01:45:58;98881.66;;;14.26;100.00
9307;BME280;4691;47.612;7.610;2022-09-24T01:48:25;98870.63;;;14.29;100.00
9307;BME280;4691;47.612;7.610;2022-09-24T01:50:57;98853.63;;;14.29;100.00
9307;BME280;4691;47.612;7.610;2022-09-24T01:53:34;98847.84;;;14.24;100.00
9307;BME280;4691;47.612;7.610;2022-09-24T01:56:15;98850.94;;;14.19;100.00
9307;BME280;4691;47.612;7.610;2022-09-24T01:58:50;98850.09;;;14.19;100.00
9307;BME280;4691;47.612;7.610;2022-09-24T02:01:29;98845.69;;;14.18;100.00
9307;BME280;4691;47.612;7.610;2022-09-24T02:04:00;98846.56;;;14.18;100.00
9307;BME280;4691;47.612;7.610;2022-09-24T02:06:33;98857.16;;;14.20;100.00
9307;BME280;4691;47.612;7.610;2022-09-24T02:09:00;98850.94;;;14.19;100.00
9307;BME280;4691;47.612;7.610;2022-09-24T02:11:26;98842.59;;;14.22;100.00
9307;BME280;4691;47.612;7.610;2022-09-24T02:19:47;98645.84;;;14.17;100.00
9307;BME280;4691;47.612;7.610;2022-09-24T02:22:25;98652.94;;;14.18;100.00
9307;BME280;4691;47.612;7.610;2022-09-24T02:26:04;98655.22;;;14.13;100.00
9307;BME280;4691;47.612;7.610;2022-09-24T02:28:20;98668.81;;;14.11;100.00
9307;BME280;4691;47.612;7.610;2022-09-24T02:31:31;98676.47;;;14.06;100.00
9307;BME280;4691;47.612;7.610;2022-09-24T02:34:34;98696.00;;;14.08;100.00
9307;BME280;4691;47.612;7.610;2022-09-24T02:37:13;98709.16;;;14.02;100.00
9307;BME280;4691;47.612;7.610;2022-09-24T02:40:12;98719.19;;;14.00;100.00
9307;BME280;4691;47.612;7.610;2022-09-24T02:46:05;98717.22;;;14.02;100.00
9307;BME280;4691;47.612;7.610;2022-09-24T02:48:36;98722.88;;;13.99;100.00
9307;BME280;4691;47.612;7.610;2022-09-24T02:51:14;98721.63;;;13.93;100.00
9307;BME280;4691;47.612;7.610;2022-09-24T02:53:46;98736.91;;;13.92;100.00
9307;BME280;4691;47.612;7.610;2022-09-24T02:56:27;98733.94;;;13.96;100.00
9307;BME280;4691;47.612;7.610;2022-09-24T02:59:38;98741.00;;;13.97;100.00
9307;BME280;4691;47.612;7.610;2022-09-24T03:02:21;98750.34;;;13.92;100.00
9307;BME280;4691;47.612;7.610;2022-09-24T03:04:50;98759.69;;;13.88;100.00
9307;BME280;4691;47.612;7.610;2022-09-24T03:07:33;98768.03;;;13.85;100.00
9307;BME280;4691;47.612;7.610;2022-09-24T03:12:48;98777.50;;;13.80;100.00
9307;BME280;4691;47.612;7.610;2022-09-24T03:15:22;98783.72;;;13.80;100.00
9307;BME280;4691;47.612;7.610;2022-09-24T03:17:52;98786.13;;;13.83;100.00
9307;BME280;4691;47.612;7.610;2022-09-24T03:20:31;98792.22;;;13.85;100.00
9307;BME280;4691;47.612;7.610;2022-09-24T03:23:02;98786.69;;;13.87;100.00
9307;BME280;4691;47.612;7.610;2022-09-24T03:28:27;98788.13;;;13.91;100.00
9307;BME280;4691;47.612;7.610;2022-09-24T03:31:05;98802.41;;;13.91;100.00
9307;BME280;4691;47.612;7.610;2022-09-24T03:34:05;98790.50;;;13.94;100.00
9307;BME280;4691;47.612;7.610;2022-09-24T03:36:46;98793.19;;;13.94;100.00
9307;BME280;4691;47.612;7.610;2022-09-24T03:39:33;98793.78;;;13.98;100.00
9307;BME280;4691;47.612;7.610;2022-09-24T03:42:06;98791.94;;;13.98;100.00
9307;BME280;4691;47.612;7.610;2022-09-24T03:44:45;98790.81;;;14.01;100.00
9307;BME280;4691;47.612;7.610;2022-09-24T03:47:22;98798.16;;;13.99;100.00
9307;BME280;4691;47.612;7.610;2022-09-24T03:49:59;98789.38;;;13.97;100.00
9307;BME280;4691;47.612;7.610;2022-09-24T03:55:40;98791.94;;;13.88;100.00
9307;BME280;4691;47.612;7.610;2022-09-24T03:58:09;98749.75;;;13.79;100.00
9307;BME280;4691;47.612;7.610;2022-09-24T04:01:00;98749.09;;;13.77;100.00
9307;BME280;4691;47.612;7.610;2022-09-24T04:03:31;98755.13;;;13.79;100.00
9307;BME280;4691;47.612;7.610;2022-09-24T04:06:06;98747.94;;;13.80;100.00
9307;BME280;4691;47.612;7.610;2022-09-24T04:08:42;98753.44;;;13.78;100.00
9307;BME280;4691;47.612;7.610;2022-09-24T04:11:19;98756.84;;;13.80;100.00
9307;BME280;4691;47.612;7.610;2022-09-24T04:14:10;98760.50;;;13.79;100.00
9307;BME280;4691;47.612;7.610;2022-09-24T04:16:39;98763.50;;;13.76;100.00
9307;BME280;4691;47.612;7.610;2022-09-24T04:19:13;98758.28;;;13.75;100.00
9307;BME280;4691;47.612;7.610;2022-09-24T04:22:09;98752.03;;;13.74;100.00
9307;BME280;4691;47.612;7.610;2022-09-24T04:24:50;98756.84;;;13.70;100.00
9307;BME280;4691;47.612;7.610;2022-09-24T04:27:18;98753.16;;;13.71;100.00
9307;BME280;4691;47.612;7.610;2022-09-24T04:29:57;98754.56;;;13.66;100.00
9307;BME280;4691;47.612;7.610;2022-09-24T04:36:12;98753.72;;;13.56;100.00
9307;BME280;4691;47.612;7.610;2022-09-24T04:38:40;98761.06;;;13.54;100.00
9307;BME280;4691;47.612;7.610;2022-09-24T04:41:15;98765.75;;;13.52;100.00
9307;BME280;4691;47.612;7.610;2022-09-24T04:44:03;98771.81;;;13.54;100.00
9307;BME280;4691;47.612;7.610;2022-09-24T04:46:41;98773.53;;;13.55;100.00
9307;BME280;4691;47.612;7.610;2022-09-24T04:52:16;98770.56;;;13.58;100.00
9307;BME280;4691;47.612;7.610;2022-09-24T04:58:00;98780.31;;;13.49;100.00
9307;BME280;4691;47.612;7.610;2022-09-24T05:00:39;98780.88;;;13.53;100.00
9307;BME280;4691;47.612;7.610;2022-09-24T05:03:13;98779.75;;;13.55;100.00
9307;BME280;4691;47.612;7.610;2022-09-24T05:05:47;98776.34;;;13.53;100.00
9307;BME280;4691;47.612;7.610;2022-09-24T05:08:16;98786.53;;;13.49;100.00
9307;BME280;4691;47.612;7.610;2022-09-24T05:10:58;98786.81;;;13.46;100.00
9307;BME280;4691;47.612;7.610;2022-09-24T05:13:28;98780.56;;;13.46;100.00
9307;BME280;4691;47.612;7.610;2022-09-24T05:16:02;98785.81;;;13.47;100.00
9307;BME280;4691;47.612;7.610;2022-09-24T05:18:50;98777.63;;;13.49;100.00
9307;BME280;4691;47.612;7.610;2022-09-24T05:21:22;98783.13;;;13.47;100.00
9307;BME280;4691;47.612;7.610;2022-09-24T05:23:50;98786.53;;;13.49;100.00
9307;BME280;4691;47.612;7.610;2022-09-24T05:26:21;98787.25;;;13.52;100.00
9307;BME280;4691;47.612;7.610;2022-09-24T05:29:25;98790.63;;;13.54;100.00
9307;BME280;4691;47.612;7.610;2022-09-24T05:31:54;98787.38;;;13.60;100.00
9307;BME280;4691;47.612;7.610;2022-09-24T05:34:32;98786.38;;;13.61;100.00
9307;BME280;4691;47.612;7.610;2022-09-24T05:37:01;98783.69;;;13.61;100.00
9307;BME280;4691;47.612;7.610;2022-09-24T05:39:45;98789.06;;;13.61;100.00
9307;BME280;4691;47.612;7.610;2022-09-24T05:42:26;98789.66;;;13.55;100.00
9307;BME280;4691;47.612;7.610;2022-09-24T05:44:59;98801.22;;;13.55;100.00
9307;BME280;4691;47.612;7.610;2022-09-24T05:47:45;98796.69;;;13.56;100.00
9307;BME280;4691;47.612;7.610;2022-09-24T05:50:18;98800.09;;;13.58;100.00
9307;BME280;4691;47.612;7.610;2022-09-24T05:52:55;98802.50;;;13.61;100.00
9307;BME280;4691;47.612;7.610;2022-09-24T05:55:21;98798.69;;;13.63;100.00
9307;BME280;4691;47.612;7.610;2022-09-24T05:57:55;98812.00;;;13.65;100.00
9307;BME280;4691;47.612;7.610;2022-09-24T06:00:31;98800.97;;;13.68;100.00
9307;BME280;4691;47.612;7.610;2022-09-24T06:03:29;98811.44;;;13.71;100.00
9307;BME280;4691;47.612;7.610;2022-09-24T06:06:05;98813.72;;;13.76;100.00
9307;BME280;4691;47.612;7.610;2022-09-24T06:09:04;98814.25;;;13.79;100.00
9307;BME280;4691;47.612;7.610;2022-09-24T06:14:42;98828.41;;;13.81;100.00
9307;BME280;4691;47.612;7.610;2022-09-24T06:17:08;98822.91;;;13.83;100.00
9307;BME280;4691;47.612;7.610;2022-09-24T06:19:59;98824.47;;;13.85;100.00
9307;BME280;4691;47.612;7.610;2022-09-24T06:25:17;98831.81;;;13.83;100.00
9307;BME280;4691;47.612;7.610;2022-09-24T06:28:06;98835.94;;;13.87;100.00
9307;BME280;4691;47.612;7.610;2022-09-24T06:30:37;98845.28;;;13.93;100.00
9307;BME280;4691;47.612;7.610;2022-09-24T06:33:23;98847.38;;;13.99;100.00
9307;BME280;4691;47.612;7.610;2022-09-24T06:36:18;98847.25;;;14.01;100.00
9307;BME280;4691;47.612;7.610;2022-09-24T06:38:52;98852.47;;;14.02;100.00
9307;BME280;4691;47.612;7.610;2022-09-24T06:41:22;98853.06;;;14.06;100.00
9307;BME280;4691;47.612;7.610;2022-09-24T06:44:05;98856.19;;;14.11;100.00
9307;BME280;4691;47.612;7.610;2022-09-24T06:46:54;98853.06;;;14.06;100.00
9307;BME280;4691;47.612;7.610;2022-09-24T06:49:28;98857.84;;;14.02;100.00
9307;BME280;4691;47.612;7.610;2022-09-24T06:52:06;98858.72;;;14.03;100.00
9307;BME280;4691;47.612;7.610;2022-09-24T06:54:42;98855.91;;;14.14;100.00
9307;BME280;4691;47.612;7.610;2022-09-24T06:57:10;98862.25;;;14.23;100.00
9307;BME280;4691;47.612;7.610;2022-09-24T06:59:44;98871.44;;;14.20;100.00
9307;BME280;4691;47.612;7.610;2022-09-24T07:02:28;98864.38;;;14.19;100.00
9307;BME280;4691;47.612;7.610;2022-09-24T07:05:00;98862.84;;;14.26;100.00
9307;BME280;4691;47.612;7.610;2022-09-24T07:07:36;98861.53;;;14.30;100.00
9307;BME280;4691;47.612;7.610;2022-09-24T07:10:07;98858.59;;;14.33;100.00
9307;BME280;4691;47.612;7.610;2022-09-24T07:12:52;98861.69;;;14.38;100.00
9307;BME280;4691;47.612;7.610;2022-09-24T07:15:20;98859.97;;;14.37;100.00
9307;BME280;4691;47.612;7.610;2022-09-24T07:17:58;98861.53;;;14.40;100.00
9307;BME280;4691;47.612;7.610;2022-09-24T07:20:26;98863.81;;;14.45;100.00
9307;BME280;4691;47.612;7.610;2022-09-24T07:25:55;98874.88;;;14.42;100.00
9307;BME280;4691;47.612;7.610;2022-09-24T07:28:29;98879.53;;;14.49;100.00
9307;BME280;4691;47.612;7.610;2022-09-24T07:31:06;98873.00;;;14.52;100.00
9307;BME280;4691;47.612;7.610;2022-09-24T07:33:44;98871.47;;;14.49;100.00
9307;BME280;4691;47.612;7.610;2022-09-24T07:36:25;98866.38;;;14.56;100.00
9307;BME280;4691;47.612;7.610;2022-09-24T07:39:11;98856.16;;;14.50;100.00
9307;BME280;4691;47.612;7.610;2022-09-24T07:41:46;98856.16;;;14.50;100.00
9307;BME280;4691;47.612;7.610;2022-09-24T07:44:25;98847.91;;;14.51;100.00
9307;BME280;4691;47.612;7.610;2022-09-24T07:46:56;98853.06;;;14.54;100.00
9307;BME280;4691;47.612;7.610;2022-09-24T07:49:36;98851.34;;;14.63;100.00
9307;BME280;4691;47.612;7.610;2022-09-24T07:52:12;98852.78;;;14.67;100.00
9307;BME280;4691;47.612;7.610;2022-09-24T07:57:36;98852.72;;;14.77;100.00
9307;BME280;4691;47.612;7.610;2022-09-24T08:00:16;98854.97;;;14.81;100.00
9307;BME280;4691;47.612;7.610;2022-09-24T08:02:50;98859.25;;;14.74;100.00
9307;BME280;4691;47.612;7.610;2022-09-24T08:05:44;98854.44;;;14.68;100.00
9307;BME280;4691;47.612;7.610;2022-09-24T08:08:24;98858.72;;;14.61;100.00
9307;BME280;4691;47.612;7.610;2022-09-24T08:11:18;98857.88;;;14.61;100.00
9307;BME280;4691;47.612;7.610;2022-09-24T08:14:07;98863.97;;;14.63;100.00
9307;BME280;4691;47.612;7.610;2022-09-24T08:16:56;98864.09;;;14.61;100.00
9307;BME280;4691;47.612;7.610;2022-09-24T08:19:26;98873.72;;;14.64;100.00
9307;BME280;4691;47.612;7.610;2022-09-24T08:22:06;98874.00;;;14.70;100.00
9307;BME280;4691;47.612;7.610;2022-09-24T08:24:41;98872.28;;;14.69;100.00
9307;BME280;4691;47.612;7.610;2022-09-24T08:27:15;98876.69;;;14.70;100.00
9307;BME280;4691;47.612;7.610;2022-09-24T08:30:16;98872.28;;;14.79;100.00
9307;BME280;4691;47.612;7.610;2022-09-24T08:35:35;98885.06;;;14.67;100.00
9307;BME280;4691;47.612;7.610;2022-09-24T08:38:07;98883.06;;;14.69;100.00
9307;BME280;4691;47.612;7.610;2022-09-24T08:49:29;98875.97;;;14.88;100.00
9307;BME280;4691;47.612;7.610;2022-09-24T08:54:52;98874.84;;;14.71;100.00
9307;BME280;4691;47.612;7.610;2022-09-24T08:57:39;98877.25;;;14.64;100.00
9307;BME280;4691;47.612;7.610;2022-09-24T09:00:18;98877.66;;;14.69;100.00
9307;BME280;4691;47.612;7.610;2022-09-24T09:03:12;98882.50;;;14.75;100.00
9307;BME280;4691;47.612;7.610;2022-09-24T09:11:55;98892.44;;;14.65;100.00
9307;BME280;4691;47.612;7.610;2022-09-24T09:23:45;98890.81;;;14.92;100.00
9307;BME280;4691;47.612;7.610;2022-09-24T09:26:20;98893.63;;;15.00;100.00
9307;BME280;4691;47.612;7.610;2022-09-24T09:28:48;98898.88;;;14.92;100.00
9307;BME280;4691;47.612;7.610;2022-09-24T09:42:37;98894.50;;;14.91;100.00
9307;BME280;4691;47.612;7.610;2022-09-24T09:45:26;98905.69;;;14.96;100.00
9307;BME280;4691;47.612;7.610;2022-09-24T09:48:22;98909.34;;;14.95;100.00
9307;BME280;4691;47.612;7.610;2022-09-24T09:51:09;98901.16;;;14.87;100.00
9307;BME280;4691;47.612;7.610;2022-09-24T09:53:58;98902.59;;;14.81;100.00
9307;BME280;4691;47.612;7.610;2022-09-24T09:56:33;98902.59;;;14.91;100.00
9307;BME280;4691;47.612;7.610;2022-09-24T10:01:42;98898.59;;;14.95;100.00
9307;BME280;4691;47.612;7.610;2022-09-24T10:04:40;98909.09;;;14.98;100.00
9307;BME280;4691;47.612;7.610;2022-09-24T10:10:36;98898.03;;;15.01;100.00
9307;BME280;4691;47.612;7.610;2022-09-24T10:13:22;98894.31;;;15.02;100.00
9307;BME280;4691;47.612;7.610;2022-09-24T10:16:02;98887.81;;;14.95;100.00
9307;BME280;4691;47.612;7.610;2022-09-24T10:24:19;98887.25;;;15.01;100.00
9307;BME280;4691;47.612;7.610;2022-09-24T10:26:54;98893.75;;;15.08;100.00
9307;BME280;4691;47.612;7.610;2022-09-24T10:29:39;98888.31;;;15.18;100.00
9307;BME280;4691;47.612;7.610;2022-09-24T10:32:41;98872.56;;;15.23;100.00
9307;BME280;4691;47.612;7.610;2022-09-24T10:35:26;98869.94;;;15.41;100.00
9307;BME280;4691;47.612;7.610;2022-09-24T10:38:15;98859.56;;;15.46;100.00
9307;BME280;4691;47.612;7.610;2022-09-24T10:40:49;98868.28;;;15.58;100.00
9307;BME280;4691;47.612;7.610;2022-09-24T10:43:20;98863.03;;;15.56;100.00
9307;BME280;4691;47.612;7.610;2022-09-24T10:53:27;98826.34;;;16.01;100.00
9307;BME280;4691;47.612;7.610;2022-09-24T11:46:47;98572.53;;;17.05;100.00
9307;BME280;4691;47.612;7.610;2022-09-24T11:53:09;98515.66;;;17.07;100.00
9307;BME280;4691;47.612;7.610;2022-09-24T11:56:16;98476.41;;;17.52;100.00
9307;BME280;4691;47.612;7.610;2022-09-24T11:59:30;98415.03;;;18.16;100.00
9307;BME280;4691;47.612;7.610;2022-09-24T12:02:27;98271.25;;;18.57;100.00
9307;BME280;4691;47.612;7.610;2022-09-24T12:05:39;98085.97;;;17.77;100.00
9307;BME280;4691;47.612;7.610;2022-09-24T12:11:49;98129.22;;;17.31;100.00
9307;BME280;4691;47.612;7.610;2022-09-24T12:14:53;98179.50;;;17.40;100.00
9307;BME280;4691;47.612;7.610;2022-09-24T12:17:51;98150.84;;;17.31;100.00
9307;BME280;4691;47.612;7.610;2022-09-24T12:20:57;98092.13;;;17.02;100.00
9307;BME280;4691;47.612;7.610;2022-09-24T12:23:40;98120.94;;;16.70;100.00
9307;BME280;4691;47.612;7.610;2022-09-24T12:26:32;98146.16;;;16.46;100.00
9307;BME280;4691;47.612;7.610;2022-09-24T12:29:28;98209.41;;;16.44;100.00
9307;BME280;4691;47.612;7.610;2022-09-24T12:32:34;98316.50;;;16.68;100.00
9307;BME280;4691;47.612;7.610;2022-09-24T12:38:59;98317.84;;;16.88;100.00
9307;BME280;4691;47.612;7.610;2022-09-24T12:42:04;98320.34;;;17.06;100.00
9307;BME280;4691;47.612;7.610;2022-09-24T12:44:50;98314.41;;;17.03;100.00
9307;BME280;4691;47.612;7.610;2022-09-24T12:47:44;98308.56;;;16.66;100.00
9307;BME280;4691;47.612;7.610;2022-09-24T12:56:39;98514.00;;;16.47;100.00
9307;BME280;4691;47.612;7.610;2022-09-24T12:59:48;98565.94;;;16.41;100.00
9307;BME280;4691;47.612;7.610;2022-09-24T13:02:27;98610.25;;;16.38;100.00
9307;BME280;4691;47.612;7.610;2022-09-24T13:05:03;98634.84;;;16.27;100.00
9307;BME280;4691;47.612;7.610;2022-09-24T13:07:35;98642.91;;;16.19;100.00
9307;BME280;4691;47.612;7.610;2022-09-24T13:10:21;98667.19;;;16.19;100.00
9307;BME280;4691;47.612;7.610;2022-09-24T13:12:47;98702.53;;;16.16;100.00
9307;BME280;4691;47.612;7.610;2022-09-24T13:15:34;98689.38;;;16.13;100.00
9307;BME280;4691;47.612;7.610;2022-09-24T13:20:35;98702.81;;;16.04;100.00
9307;BME280;4691;47.612;7.610;2022-09-24T13:23:29;98706.81;;;16.00;100.00
9307;BME280;4691;47.612;7.610;2022-09-24T13:26:00;98712.56;;;16.05;100.00
9307;BME280;4691;47.612;7.610;2022-09-24T13:28:49;98723.94;;;15.91;100.00
9307;BME280;4691;47.612;7.610;2022-09-24T13:33:52;98734.22;;;15.70;100.00
9307;BME280;4691;47.612;7.610;2022-09-24T13:36:27;98745.66;;;15.72;100.00
9307;BME280;4691;47.612;7.610;2022-09-24T13:42:05;98754.19;;;15.85;100.00
9307;BME280;4691;47.612;7.610;2022-09-24T13:44:36;98758.59;;;15.86;100.00
9307;BME280;4691;47.612;7.610;2022-09-24T13:47:11;98767.41;;;15.88;100.00
9307;BME280;4691;47.612;7.610;2022-09-24T13:49:42;98758.22;;;15.99;100.00
9307;BME280;4691;47.612;7.610;2022-09-24T13:52:33;98762.78;;;15.98;100.00
9307;BME280;4691;47.612;7.610;2022-09-24T13:55:05;98759.97;;;15.90;100.00
9307;BME280;4691;47.612;7.610;2022-09-24T13:57:41;98748.41;;;15.80;100.00
9307;BME280;4691;47.612;7.610;2022-09-24T14:02:36;98743.34;;;15.77;100.00
9307;BME280;4691;47.612;7.610;2022-09-24T14:05:13;98735.56;;;15.74;100.00
9307;BME280;4691;47.612;7.610;2022-09-24T14:07:39;98735.25;;;15.95;100.00
9307;BME280;4691;47.612;7.610;2022-09-24T14:10:11;98739.06;;;16.10;100.00
9307;BME280;4691;47.612;7.610;2022-09-24T14:12:37;98734.97;;;16.24;100.00
9307;BME280;4691;47.612;7.610;2022-09-24T14:15:12;98719.47;;;16.26;100.00
9307;BME280;4691;47.612;7.610;2022-09-24T14:17:38;98714.75;;;16.28;100.00
9307;BME280;4691;47.612;7.610;2022-09-24T14:20:04;98703.53;;;16.41;100.00
9307;BME280;4691;47.612;7.610;2022-09-24T14:22:33;98700.69;;;16.42;100.00
9307;BME280;4691;47.612;7.610;2022-09-24T14:25:08;98697.38;;;16.57;100.00
9307;BME280;4691;47.612;7.610;2022-09-24T14:27:41;98674.47;;;17.95;100.00
9307;BME280;4691;47.612;7.610;2022-09-24T14:30:18;98621.69;;;18.07;100.00
9307;BME280;4691;47.612;7.610;2022-09-24T14:32:50;98601.28;;;17.63;100.00
9307;BME280;4691;47.612;7.610;2022-09-24T14:35:19;98599.91;;;17.43;100.00
9307;BME280;4691;47.612;7.610;2022-09-24T14:37:51;98605.47;;;17.09;100.00
9307;BME280;4691;47.612;7.610;2022-09-24T14:40:20;98590.22;;;16.41;100.00
9307;BME280;4691;47.612;7.610;2022-09-24T14:42:48;98594.16;;;16.20;100.00
9307;BME280;4691;47.612;7.610;2022-09-24T14:45:25;98615.41;;;16.23;100.00
9307;BME280;4691;47.612;7.610;2022-09-24T14:48:17;98633.31;;;16.24;100.00
9307;BME280;4691;47.612;7.610;2022-09-24T14:50:44;98645.63;;;16.27;100.00
9307;BME280;4691;47.612;7.610;2022-09-24T14:53:31;98660.34;;;16.06;100.00
9307;BME280;4691;47.612;7.610;2022-09-24T14:56:06;98662.88;;;16.08;100.00
9307;BME280;4691;47.612;7.610;2022-09-24T14:58:42;98659.56;;;16.14;100.00
9307;BME280;4691;47.612;7.610;2022-09-24T15:01:19;98664.78;;;16.16;100.00
9307;BME280;4691;47.612;7.610;2022-09-24T15:03:48;98681.75;;;16.08;100.00
9307;BME280;4691;47.612;7.610;2022-09-24T15:06:23;98679.41;;;15.87;100.00
9307;BME280;4691;47.612;7.610;2022-09-24T15:08:58;98688.06;;;15.73;100.00
9307;BME280;4691;47.612;7.610;2022-09-24T15:11:25;98702.13;;;15.49;100.00
9307;BME280;4691;47.612;7.610;2022-09-24T15:14:01;98710.75;;;15.34;100.00
9307;BME280;4691;47.612;7.610;2022-09-24T15:16:32;98731.25;;;15.17;100.00
9307;BME280;4691;47.612;7.610;2022-09-24T15:19:11;98729.31;;;15.10;100.00
9307;BME280;4691;47.612;7.610;2022-09-24T15:21:37;98737.56;;;15.08;100.00
9307;BME280;4691;47.612;7.610;2022-09-24T15:24:03;98738.41;;;15.09;100.00
9307;BME280;4691;47.612;7.610;2022-09-24T15:26:30;98725.06;;;15.07;100.00
9307;BME280;4691;47.612;7.610;2022-09-24T15:28:57;98740.19;;;15.18;100.00
9307;BME280;4691;47.612;7.610;2022-09-24T15:31:23;98742.88;;;15.18;100.00
9307;BME280;4691;47.612;7.610;2022-09-24T15:33:48;98744.53;;;15.29;100.00
9307;BME280;4691;47.612;7.610;2022-09-24T15:36:14;98750.97;;;15.36;100.00
9307;BME280;4691;47.612;7.610;2022-09-24T15:38:43;98745.59;;;15.36;100.00
9307;BME280;4691;47.612;7.610;2022-09-24T15:41:09;98748.09;;;15.47;100.00
9307;BME280;4691;47.612;7.610;2022-09-24T15:43:34;98749.78;;;15.48;100.00
9307;BME280;4691;47.612;7.610;2022-09-24T15:46:09;98732.59;;;15.31;100.00
9307;BME280;4691;47.612;7.610;2022-09-24T15:48:54;98728.84;;;15.42;100.00
9307;BME280;4691;47.612;7.610;2022-09-24T15:51:21;98737.97;;;15.77;100.00
9307;BME280;4691;47.612;7.610;2022-09-24T15:53:47;98719.91;;;17.08;100.00
9307;BME280;4691;47.612;7.610;2022-09-24T15:56:13;98682.56;;;17.95;100.00
9307;BME280;4691;47.612;7.610;2022-09-24T15:58:40;98597.84;;;18.19;100.00
9307;BME280;4691;47.612;7.610;2022-09-24T16:01:05;98436.09;;;18.29;100.00
9307;BME280;4691;47.612;7.610;2022-09-24T16:03:32;98235.72;;;18.22;100.00
9307;BME280;4691;47.612;7.610;2022-09-24T16:05:58;98182.69;;;18.13;100.00
9307;BME280;4691;47.612;7.610;2022-09-24T16:08:24;98166.78;;;17.80;100.00
9307;BME280;4691;47.612;7.610;2022-09-24T16:10:51;98167.38;;;17.36;100.00
9307;BME280;4691;47.612;7.610;2022-09-24T16:13:18;98227.31;;;17.09;100.00
9307;BME280;4691;47.612;7.610;2022-09-24T16:15:44;98334.34;;;16.77;100.00
9307;BME280;4691;47.612;7.610;2022-09-24T16:18:14;98410.59;;;16.30;100.00
9307;BME280;4691;47.612;7.610;2022-09-24T16:20:40;98498.75;;;16.21;100.00
9307;BME280;4691;47.612;7.610;2022-09-24T16:23:11;98566.63;;;16.08;100.00
9307;BME280;4691;47.612;7.610;2022-09-24T16:25:38;98633.63;;;15.95;100.00
9307;BME280;4691;47.612;7.610;2022-09-24T16:28:04;98672.28;;;15.78;100.00
9307;BME280;4691;47.612;7.610;2022-09-24T16:30:30;98714.47;;;15.69;100.00
9307;BME280;4691;47.612;7.610;2022-09-24T16:32:55;98737.78;;;15.60;100.00
9307;BME280;4691;47.612;7.610;2022-09-24T16:35:21;98767.34;;;15.52;100.00
9307;BME280;4691;47.612;7.610;2022-09-24T16:37:46;98786.66;;;15.48;100.00
9307;BME280;4691;47.612;7.610;2022-09-24T16:40:11;98776.53;;;15.77;100.00
9307;BME280;4691;47.612;7.610;2022-09-24T16:42:36;98782.16;;;16.20;100.00
9307;BME280;4691;47.612;7.610;2022-09-24T16:45:02;98782.41;;;16.08;100.00
9307;BME280;4691;47.612;7.610;2022-09-24T16:47:27;98773.06;;;15.85;100.00
9307;BME280;4691;47.612;7.610;2022-09-24T16:49:53;98776.59;;;15.67;100.00
9307;BME280;4691;47.612;7.610;2022-09-24T16:52:18;98786.81;;;15.64;100.00
9307;BME280;4691;47.612;7.610;2022-09-24T16:54:44;98791.59;;;15.52;100.00
9307;BME280;4691;47.612;7.610;2022-09-24T16:57:09;98791.56;;;15.80;100.00
9307;BME280;4691;47.612;7.610;2022-09-24T16:59:34;98793.41;;;15.97;100.00
9307;BME280;4691;47.612;7.610;2022-09-24T17:02:00;98790.97;;;15.86;100.00
9307;BME280;4691;47.612;7.610;2022-09-24T17:04:25;98790.41;;;15.64;100.00
9307;BME280;4691;47.612;7.610;2022-09-24T17:06:58;98791.66;;;15.42;100.00
9307;BME280;4691;47.612;7.610;2022-09-24T17:09:23;98801.78;;;15.31;100.00
9307;BME280;4691;47.612;7.610;2022-09-24T17:12:07;98799.59;;;15.16;100.00